Cleveland, OH (44131)

3:06 PM EDT on August 29, 2016 (GMT -0400)
Seven Hills | | Change Station

Elev 889 ft 41.39 °N, 81.67 °W | Updated 9 minutes ago

Clear
Clear
82.6 °F
Feels Like 85 °F
N
4.2
Wind Variable Wind from SW

Today
High -- | Low -- °F
--% Chance of Precip.
Yesterday
High -- | Low -- °F
Precip. -- in
Pressure 30.24 in
Visibility 10.0 miles
Clouds Clear
Heat Index 85 °F
Dew Point 66 °F
Humidity 57%
Rainfall 0.00 in
Snow Depth Not available.
6:50 AM 8:03 PM
Waning Crescent, 7% visible
METAR KBKL 291853Z 02014KT 10SM CLR 27/17 A3025 RMK AO2 SLP238 T02670172
Pressure 30.24 in
Visibility 10.0 miles
Clouds Clear
Heat Index 85 °F
Dew Point 66 °F
Humidity 57%
Rainfall 0.00 in
Snow Depth Not available.
6:50 AM 8:03 PM
Waning Crescent, 7% visible
METAR KBKL 291853Z 02014KT 10SM CLR 27/17 A3025 RMK AO2 SLP238 T02670172

10-Day Weather Forecast

Almanac

Astronomy

Aug. 29, 2016 Rise Set
Actual Time
Civil Twilight
Nautical Twilight
Astronomical Twilight
Moon
Length of Visible Light
Length of Day
Tomorrow will be .
, % of the Moon is Illuminated

Today's Extremes

State Highs State Lows

Community

WunderPhotos

Upload Photos

1,935,681 photos uploaded!

WunderBlog® & News

Nearby

Air Quality

  Air Quality AQ Index Pollutant
Not available.

Snow Depth

Station Depth Elevation

Earthquake Activity

City Distance Mag. Time & Date
Minimum magnitude displayed is 2.5.

Coastal Water Temperatures

Place Temperature

Stations

Nearby Weather Stations

Station Location Temp. Windchill Dew Point Humidity Wind Precip. Elev Updated Type
                   

Watches & Warnings

There are currently no watches in effect.